Terminal Aerodrome Forecast
Issued by NWS

Home | Current Version | Previous Version | Text Only | Print | Product List | Glossary On
Versions: 1 2 3 4 5 6 7 8 9 10 11 12 13 14 15 16 17 18 19 20 21
203
FTAK31 PAJN 190524
TAFAPG
TAF
PAPG 190524Z 1906/2006 10010KT P6SM VCSH SCT025 OVC035
      WS020/13030KT
     FM191100 23003KT 3SM -SHRA BR BKN007 OVC015
     FM192000 VRB03KT P6SM VCSH FEW007 SCT015 BKN050
      AMD LTD TO CLD VIS AND WIND 1906/1915=

USA.gov is the U.S. government's official web portal to all federal, state and local government web resources and services.